sensor_id;sensor_type;location;lat;lon;timestamp;pressure;altitude;pressure_sealevel;temperature;humidity
73453;BME280;61687;56.232;43.854;2023-02-15T00:01:44;100665.06;;;-4.35;71.60
73453;BME280;61687;56.232;43.854;2023-02-15T00:04:13;100660.44;;;-4.44;72.02
73453;BME280;61687;56.232;43.854;2023-02-15T00:06:40;100665.38;;;-4.64;72.39
73453;BME280;61687;56.232;43.854;2023-02-15T00:09:06;100678.88;;;-4.81;73.17
73453;BME280;61687;56.232;43.854;2023-02-15T00:11:32;100668.94;;;-4.85;73.29
73453;BME280;61687;56.232;43.854;2023-02-15T00:14:22;100681.63;;;-5.03;74.04
73453;BME280;61687;56.232;43.854;2023-02-15T00:16:50;100677.34;;;-5.04;73.84
73453;BME280;61687;56.232;43.854;2023-02-15T00:19:18;100674.06;;;-5.11;74.13
73453;BME280;61687;56.232;43.854;2023-02-15T00:21:45;100678.66;;;-5.07;74.15
73453;BME280;61687;56.232;43.854;2023-02-15T00:24:13;100678.66;;;-5.07;74.35
73453;BME280;61687;56.232;43.854;2023-02-15T00:26:40;100681.81;;;-5.10;74.38
73453;BME280;61687;56.232;43.854;2023-02-15T00:29:07;100678.44;;;-5.00;74.18
73453;BME280;61687;56.232;43.854;2023-02-15T00:31:34;100676.66;;;-4.89;73.83
73453;BME280;61687;56.232;43.854;2023-02-15T00:36:29;100684.63;;;-4.62;73.26
73453;BME280;61687;56.232;43.854;2023-02-15T00:38:55;100680.69;;;-4.54;73.05
73453;BME280;61687;56.232;43.854;2023-02-15T00:41:21;100688.69;;;-4.59;73.15
73453;BME280;61687;56.232;43.854;2023-02-15T00:43:47;100674.50;;;-4.60;73.15
73453;BME280;61687;56.232;43.854;2023-02-15T00:46:13;100672.84;;;-4.66;73.47
73453;BME280;61687;56.232;43.854;2023-02-15T00:48:39;100688.59;;;-4.69;73.61
73453;BME280;61687;56.232;43.854;2023-02-15T00:51:05;100685.56;;;-4.78;73.94
73453;BME280;61687;56.232;43.854;2023-02-15T00:53:31;100684.47;;;-4.82;74.30
73453;BME280;61687;56.232;43.854;2023-02-15T00:55:57;100682.63;;;-4.82;74.43
73453;BME280;61687;56.232;43.854;2023-02-15T00:58:24;100682.34;;;-4.80;74.10
73453;BME280;61687;56.232;43.854;2023-02-15T01:00:50;100679.22;;;-4.72;74.03
73453;BME280;61687;56.232;43.854;2023-02-15T01:03:18;100690.81;;;-4.61;74.00
73453;BME280;61687;56.232;43.854;2023-02-15T01:05:44;100691.06;;;-4.63;73.96
73453;BME280;61687;56.232;43.854;2023-02-15T01:08:10;100688.34;;;-4.68;74.00
73453;BME280;61687;56.232;43.854;2023-02-15T01:10:37;100690.16;;;-4.74;74.31
73453;BME280;61687;56.232;43.854;2023-02-15T01:13:04;100683.78;;;-4.67;74.04
73453;BME280;61687;56.232;43.854;2023-02-15T01:15:34;100683.88;;;-4.57;73.63
73453;BME280;61687;56.232;43.854;2023-02-15T01:18:01;100689.97;;;-4.67;74.04
73453;BME280;61687;56.232;43.854;2023-02-15T01:20:28;100688.34;;;-4.68;74.01
73453;BME280;61687;56.232;43.854;2023-02-15T01:22:55;100683.53;;;-4.66;73.92
73453;BME280;61687;56.232;43.854;2023-02-15T01:25:23;100696.16;;;-4.61;73.71
73453;BME280;61687;56.232;43.854;2023-02-15T01:27:49;100690.31;;;-4.53;73.96
73453;BME280;61687;56.232;43.854;2023-02-15T01:30:16;100691.41;;;-4.49;73.52
73453;BME280;61687;56.232;43.854;2023-02-15T01:32:42;100696.53;;;-4.47;73.41
73453;BME280;61687;56.232;43.854;2023-02-15T01:35:09;100687.41;;;-4.51;73.44
73453;BME280;61687;56.232;43.854;2023-02-15T01:37:36;100693.28;;;-4.54;73.51
73453;BME280;61687;56.232;43.854;2023-02-15T01:40:06;100698.34;;;-4.53;73.63
73453;BME280;61687;56.232;43.854;2023-02-15T01:42:33;100695.50;;;-4.41;73.32
73453;BME280;61687;56.232;43.854;2023-02-15T01:45:04;100678.47;;;-4.29;73.13
73453;BME280;61687;56.232;43.854;2023-02-15T01:48:01;100677.97;;;-4.16;72.82
73453;BME280;61687;56.232;43.854;2023-02-15T01:50:34;100690.66;;;-4.01;72.45
73453;BME280;61687;56.232;43.854;2023-02-15T01:53:34;100685.88;;;-3.94;72.25
73453;BME280;61687;56.232;43.854;2023-02-15T01:56:09;100689.38;;;-3.88;72.00
73453;BME280;61687;56.232;43.854;2023-02-15T01:58:38;100688.88;;;-3.85;71.83
73453;BME280;61687;56.232;43.854;2023-02-15T02:01:07;100688.88;;;-3.85;71.73
73453;BME280;61687;56.232;43.854;2023-02-15T02:03:53;100691.78;;;-3.92;71.67
73453;BME280;61687;56.232;43.854;2023-02-15T02:06:24;100693.03;;;-4.10;71.99
73453;BME280;61687;56.232;43.854;2023-02-15T02:08:52;100697.00;;;-4.12;72.00
73453;BME280;61687;56.232;43.854;2023-02-15T02:11:20;100698.63;;;-4.11;71.96
73453;BME280;61687;56.232;43.854;2023-02-15T02:13:47;100706.09;;;-4.19;71.97
73453;BME280;61687;56.232;43.854;2023-02-15T02:16:39;100719.19;;;-4.17;71.99
73453;BME280;61687;56.232;43.854;2023-02-15T02:20:04;100722.94;;;-4.18;71.78
73453;BME280;61687;56.232;43.854;2023-02-15T02:22:24;100712.81;;;-4.11;71.79
73453;BME280;61687;56.232;43.854;2023-02-15T02:25:18;100713.97;;;-3.96;71.75
73453;BME280;61687;56.232;43.854;2023-02-15T02:34:25;100723.53;;;-4.11;71.66
73453;BME280;61687;56.232;43.854;2023-02-15T02:40:29;100728.59;;;-4.14;71.80
73453;BME280;61687;56.232;43.854;2023-02-15T02:42:43;100731.81;;;-4.12;71.75
73453;BME280;61687;56.232;43.854;2023-02-15T02:45:20;100731.25;;;-4.14;71.83
73453;BME280;61687;56.232;43.854;2023-02-15T02:47:59;100737.16;;;-4.12;71.75
73453;BME280;61687;56.232;43.854;2023-02-15T02:50:28;100733.72;;;-4.08;71.91
73453;BME280;61687;56.232;43.854;2023-02-15T02:52:57;100733.72;;;-4.08;71.75
73453;BME280;61687;56.232;43.854;2023-02-15T02:55:49;100748.69;;;-4.12;71.89
73453;BME280;61687;56.232;43.854;2023-02-15T03:01:12;100733.63;;;-4.18;71.89
73453;BME280;61687;56.232;43.854;2023-02-15T03:03:46;100746.56;;;-4.10;71.62
73453;BME280;61687;56.232;43.854;2023-02-15T03:06:22;100747.66;;;-4.06;71.66
73453;BME280;61687;56.232;43.854;2023-02-15T03:08:58;100749.00;;;-4.03;71.54
73453;BME280;61687;56.232;43.854;2023-02-15T03:11:29;100740.72;;;-3.96;71.53
73453;BME280;61687;56.232;43.854;2023-02-15T03:13:56;100746.69;;;-3.89;71.48
73453;BME280;61687;56.232;43.854;2023-02-15T03:16:22;100745.63;;;-3.83;71.19
73453;BME280;61687;56.232;43.854;2023-02-15T03:19:08;100751.53;;;-3.86;71.11
73453;BME280;61687;56.232;43.854;2023-02-15T03:21:49;100748.28;;;-3.88;71.15
73453;BME280;61687;56.232;43.854;2023-02-15T03:24:39;100759.22;;;-3.95;71.35
73453;BME280;61687;56.232;43.854;2023-02-15T03:27:14;100767.28;;;-3.90;71.23
73453;BME280;61687;56.232;43.854;2023-02-15T03:29:45;100769.72;;;-3.88;71.25
73453;BME280;61687;56.232;43.854;2023-02-15T03:32:44;100771.91;;;-3.80;71.12
73453;BME280;61687;56.232;43.854;2023-02-15T03:35:12;100777.81;;;-3.72;70.99
73453;BME280;61687;56.232;43.854;2023-02-15T03:37:48;100777.81;;;-3.72;70.81
73453;BME280;61687;56.232;43.854;2023-02-15T03:46:01;100786.44;;;-3.65;70.39
73453;BME280;61687;56.232;43.854;2023-02-15T03:48:34;100794.50;;;-3.65;70.32
73453;BME280;61687;56.232;43.854;2023-02-15T03:51:05;100791.53;;;-3.64;69.87
73453;BME280;61687;56.232;43.854;2023-02-15T03:53:52;100799.00;;;-3.71;69.78
73453;BME280;61687;56.232;43.854;2023-02-15T03:56:20;100809.47;;;-3.69;69.78
73453;BME280;61687;56.232;43.854;2023-02-15T03:58:46;100807.59;;;-3.69;69.78
73453;BME280;61687;56.232;43.854;2023-02-15T04:01:38;100814.81;;;-3.69;69.65
73453;BME280;61687;56.232;43.854;2023-02-15T04:06:55;100813.13;;;-3.81;69.81
73453;BME280;61687;56.232;43.854;2023-02-15T04:09:21;100814.75;;;-3.80;69.67
73453;BME280;61687;56.232;43.854;2023-02-15T04:12:05;100822.00;;;-3.80;69.79
73453;BME280;61687;56.232;43.854;2023-02-15T04:14:31;100819.56;;;-3.82;69.70
73453;BME280;61687;56.232;43.854;2023-02-15T04:17:15;100823.53;;;-3.84;69.55
73453;BME280;61687;56.232;43.854;2023-02-15T04:19:41;100827.28;;;-3.85;69.79
73453;BME280;61687;56.232;43.854;2023-02-15T04:22:26;100837.72;;;-3.89;69.89
73453;BME280;61687;56.232;43.854;2023-02-15T04:25:10;100833.38;;;-3.95;70.18
73453;BME280;61687;56.232;43.854;2023-02-15T04:27:39;100833.81;;;-4.09;70.54
73453;BME280;61687;56.232;43.854;2023-02-15T04:30:06;100844.63;;;-4.26;71.06
73453;BME280;61687;56.232;43.854;2023-02-15T04:32:33;100850.16;;;-4.38;71.49
73453;BME280;61687;56.232;43.854;2023-02-15T04:35:00;100841.66;;;-4.35;71.53
73453;BME280;61687;56.232;43.854;2023-02-15T04:37:26;100843.66;;;-4.47;71.91
73453;BME280;61687;56.232;43.854;2023-02-15T04:39:52;100851.13;;;-4.49;71.79
73453;BME280;61687;56.232;43.854;2023-02-15T04:42:18;100850.56;;;-4.51;72.29
73453;BME280;61687;56.232;43.854;2023-02-15T04:44:44;100853.06;;;-4.44;72.01
73453;BME280;61687;56.232;43.854;2023-02-15T04:47:10;100841.94;;;-4.58;72.29
73453;BME280;61687;56.232;43.854;2023-02-15T04:49:36;100858.25;;;-4.60;72.42
73453;BME280;61687;56.232;43.854;2023-02-15T04:52:15;100859.81;;;-4.64;72.29
73453;BME280;61687;56.232;43.854;2023-02-15T04:56:02;100857.41;;;-4.61;72.21
73453;BME280;61687;56.232;43.854;2023-02-15T04:58:56;100858.28;;;-4.55;72.04
73453;BME280;61687;56.232;43.854;2023-02-15T05:01:22;100854.50;;;-4.59;72.03
73453;BME280;61687;56.232;43.854;2023-02-15T05:03:48;100845.88;;;-4.66;72.20
73453;BME280;61687;56.232;43.854;2023-02-15T05:06:14;100849.53;;;-4.72;72.45
73453;BME280;61687;56.232;43.854;2023-02-15T05:08:40;100846.34;;;-4.69;72.46
73453;BME280;61687;56.232;43.854;2023-02-15T05:11:06;100861.47;;;-4.58;72.37
73453;BME280;61687;56.232;43.854;2023-02-15T05:13:32;100859.16;;;-4.49;72.09
73453;BME280;61687;56.232;43.854;2023-02-15T05:15:58;100865.28;;;-4.49;71.92
73453;BME280;61687;56.232;43.854;2023-02-15T05:18:24;100874.22;;;-4.38;71.77
73453;BME280;61687;56.232;43.854;2023-02-15T05:20:50;100872.38;;;-4.37;71.81
73453;BME280;61687;56.232;43.854;2023-02-15T05:23:16;100875.59;;;-4.35;71.68
73453;BME280;61687;56.232;43.854;2023-02-15T05:25:47;100873.53;;;-4.28;71.58
73453;BME280;61687;56.232;43.854;2023-02-15T05:28:31;100884.56;;;-4.19;71.43
73453;BME280;61687;56.232;43.854;2023-02-15T05:31:11;100879.56;;;-4.10;71.18
73453;BME280;61687;56.232;43.854;2023-02-15T05:33:37;100881.53;;;-4.00;70.95
73453;BME280;61687;56.232;43.854;2023-02-15T05:36:04;100890.13;;;-3.98;70.80
73453;BME280;61687;56.232;43.854;2023-02-15T05:38:31;100890.94;;;-3.98;70.64
73453;BME280;61687;56.232;43.854;2023-02-15T05:40:57;100893.97;;;-3.89;70.69
73453;BME280;61687;56.232;43.854;2023-02-15T05:43:24;100892.97;;;-3.78;70.50
73453;BME280;61687;56.232;43.854;2023-02-15T05:45:52;100885.94;;;-3.84;70.30
73453;BME280;61687;56.232;43.854;2023-02-15T05:48:20;100892.94;;;-3.83;70.42
73453;BME280;61687;56.232;43.854;2023-02-15T05:50:46;100893.25;;;-3.74;70.22
73453;BME280;61687;56.232;43.854;2023-02-15T05:53:21;100890.63;;;-3.69;70.11
73453;BME280;61687;56.232;43.854;2023-02-15T05:55:47;100893.09;;;-3.57;69.87
73453;BME280;61687;56.232;43.854;2023-02-15T05:58:13;100889.16;;;-3.44;69.68
73453;BME280;61687;56.232;43.854;2023-02-15T06:00:39;100898.91;;;-3.33;69.25
73453;BME280;61687;56.232;43.854;2023-02-15T06:03:05;100904.03;;;-3.26;69.02
73453;BME280;61687;56.232;43.854;2023-02-15T06:05:31;100895.50;;;-3.18;68.83
73453;BME280;61687;56.232;43.854;2023-02-15T06:07:57;100901.38;;;-3.21;68.35
73453;BME280;61687;56.232;43.854;2023-02-15T06:10:23;100905.97;;;-3.16;68.53
73453;BME280;61687;56.232;43.854;2023-02-15T06:12:48;100904.66;;;-3.08;67.97
73453;BME280;61687;56.232;43.854;2023-02-15T06:15:14;100906.81;;;-3.05;67.89
73453;BME280;61687;56.232;43.854;2023-02-15T06:17:41;100904.19;;;-2.95;67.74
73453;BME280;61687;56.232;43.854;2023-02-15T06:20:08;100913.91;;;-2.83;67.34
73453;BME280;61687;56.232;43.854;2023-02-15T06:22:34;100908.03;;;-2.75;67.20
73453;BME280;61687;56.232;43.854;2023-02-15T06:25:01;100917.16;;;-2.66;66.71
73453;BME280;61687;56.232;43.854;2023-02-15T06:27:29;100918.28;;;-2.62;66.76
73453;BME280;61687;56.232;43.854;2023-02-15T06:29:54;100923.63;;;-2.62;66.64
73453;BME280;61687;56.232;43.854;2023-02-15T06:32:20;100923.38;;;-2.55;66.42
73453;BME280;61687;56.232;43.854;2023-02-15T06:34:46;100930.31;;;-2.64;66.01
73453;BME280;61687;56.232;43.854;2023-02-15T06:37:12;100930.03;;;-2.68;66.23
73453;BME280;61687;56.232;43.854;2023-02-15T06:39:38;100944.00;;;-2.66;66.42
73453;BME280;61687;56.232;43.854;2023-02-15T06:42:04;100936.53;;;-2.64;65.93
73453;BME280;61687;56.232;43.854;2023-02-15T06:44:30;100931.16;;;-2.59;65.77
73453;BME280;61687;56.232;43.854;2023-02-15T06:46:56;100937.91;;;-2.46;65.35
73453;BME280;61687;56.232;43.854;2023-02-15T06:49:22;100940.06;;;-2.42;64.88
73453;BME280;61687;56.232;43.854;2023-02-15T06:51:48;100938.19;;;-2.42;64.45
73453;BME280;61687;56.232;43.854;2023-02-15T06:54:14;100940.34;;;-2.39;63.99
73453;BME280;61687;56.232;43.854;2023-02-15T06:56:39;100934.16;;;-2.45;64.04
73453;BME280;61687;56.232;43.854;2023-02-15T06:59:05;100932.25;;;-2.49;63.89
73453;BME280;61687;56.232;43.854;2023-02-15T07:01:31;100940.59;;;-2.51;63.90
73453;BME280;61687;56.232;43.854;2023-02-15T07:03:57;100946.44;;;-2.59;64.11
73453;BME280;61687;56.232;43.854;2023-02-15T07:06:23;100946.19;;;-2.57;64.26
73453;BME280;61687;56.232;43.854;2023-02-15T07:08:49;100953.69;;;-2.60;64.35
73453;BME280;61687;56.232;43.854;2023-02-15T07:11:15;100951.00;;;-2.60;64.25
73453;BME280;61687;56.232;43.854;2023-02-15T07:13:59;100955.84;;;-2.62;63.94
73453;BME280;61687;56.232;43.854;2023-02-15T07:16:25;100961.75;;;-2.54;63.93
73453;BME280;61687;56.232;43.854;2023-02-15T07:18:51;100961.28;;;-2.41;63.67
73453;BME280;61687;56.232;43.854;2023-02-15T07:21:16;100967.72;;;-2.37;63.21
73453;BME280;61687;56.232;43.854;2023-02-15T07:23:42;100967.09;;;-2.65;63.66
73453;BME280;61687;56.232;43.854;2023-02-15T07:26:09;100970.31;;;-2.63;64.29
73453;BME280;61687;56.232;43.854;2023-02-15T07:28:35;100961.22;;;-2.62;63.84
73453;BME280;61687;56.232;43.854;2023-02-15T07:31:02;100971.41;;;-2.59;63.57
73453;BME280;61687;56.232;43.854;2023-02-15T07:33:32;100970.31;;;-2.63;63.54
73453;BME280;61687;56.232;43.854;2023-02-15T07:36:01;100969.00;;;-2.55;63.35
73453;BME280;61687;56.232;43.854;2023-02-15T07:38:31;100972.97;;;-2.68;63.23
73453;BME280;61687;56.232;43.854;2023-02-15T07:40:58;100969.63;;;-2.91;63.28
73453;BME280;61687;56.232;43.854;2023-02-15T07:43:25;100977.47;;;-3.27;64.48
73453;BME280;61687;56.232;43.854;2023-02-15T07:45:51;100985.06;;;-3.51;65.30
73453;BME280;61687;56.232;43.854;2023-02-15T07:48:17;100988.31;;;-3.44;65.38
73453;BME280;61687;56.232;43.854;2023-02-15T07:50:43;100993.16;;;-3.41;65.16
73453;BME280;61687;56.232;43.854;2023-02-15T07:53:09;100988.41;;;-3.34;65.11
73453;BME280;61687;56.232;43.854;2023-02-15T07:55:35;100994.66;;;-3.23;64.86
73453;BME280;61687;56.232;43.854;2023-02-15T07:58:01;101004.88;;;-3.14;64.77
73453;BME280;61687;56.232;43.854;2023-02-15T08:00:27;101008.34;;;-3.19;64.46
73453;BME280;61687;56.232;43.854;2023-02-15T08:02:56;101008.06;;;-3.23;64.33
73453;BME280;61687;56.232;43.854;2023-02-15T08:05:41;101007.78;;;-3.21;64.28
73453;BME280;61687;56.232;43.854;2023-02-15T08:08:08;101011.84;;;-3.19;64.36
73453;BME280;61687;56.232;43.854;2023-02-15T08:11:28;101015.41;;;-3.08;64.00
73453;BME280;61687;56.232;43.854;2023-02-15T08:14:12;101023.78;;;-2.94;63.92
73453;BME280;61687;56.232;43.854;2023-02-15T08:16:42;101022.25;;;-2.84;63.77
73453;BME280;61687;56.232;43.854;2023-02-15T08:19:21;101027.94;;;-2.76;63.60
73453;BME280;61687;56.232;43.854;2023-02-15T08:24:21;101031.13;;;-2.79;63.17
73453;BME280;61687;56.232;43.854;2023-02-15T08:26:48;101024.81;;;-3.05;63.41
73453;BME280;61687;56.232;43.854;2023-02-15T08:29:16;101031.41;;;-3.18;63.88
73453;BME280;61687;56.232;43.854;2023-02-15T08:31:43;101031.56;;;-3.30;64.22
73453;BME280;61687;56.232;43.854;2023-02-15T08:34:13;101034.53;;;-3.32;64.13
73453;BME280;61687;56.232;43.854;2023-02-15T08:36:39;101031.09;;;-3.27;64.05
73453;BME280;61687;56.232;43.854;2023-02-15T08:39:06;101034.34;;;-3.20;63.75
73453;BME280;61687;56.232;43.854;2023-02-15T08:41:36;101035.66;;;-3.22;63.31
73453;BME280;61687;56.232;43.854;2023-02-15T08:44:05;101032.06;;;-3.38;63.88
73453;BME280;61687;56.232;43.854;2023-02-15T08:46:33;101036.22;;;-3.20;63.72
73453;BME280;61687;56.232;43.854;2023-02-15T08:49:00;101033.69;;;-3.32;63.66
73453;BME280;61687;56.232;43.854;2023-02-15T08:51:28;101026.53;;;-3.21;63.60
73453;BME280;61687;56.232;43.854;2023-02-15T08:53:56;101039.38;;;-3.28;63.39
73453;BME280;61687;56.232;43.854;2023-02-15T08:56:28;101033.63;;;-3.10;63.32
73453;BME280;61687;56.232;43.854;2023-02-15T08:58:55;101036.59;;;-3.06;62.60
73453;BME280;61687;56.232;43.854;2023-02-15T09:01:27;101035.00;;;-3.07;62.95
73453;BME280;61687;56.232;43.854;2023-02-15T09:03:59;101035.63;;;-2.90;62.54
73453;BME280;61687;56.232;43.854;2023-02-15T09:06:26;101042.69;;;-2.73;62.23
73453;BME280;61687;56.232;43.854;2023-02-15T09:08:53;101036.75;;;-2.80;62.17
73453;BME280;61687;56.232;43.854;2023-02-15T09:11:21;101035.47;;;-2.72;61.98
73453;BME280;61687;56.232;43.854;2023-02-15T09:13:56;101031.06;;;-2.89;61.39
73453;BME280;61687;56.232;43.854;2023-02-15T09:16:24;101032.41;;;-2.87;61.83
73453;BME280;61687;56.232;43.854;2023-02-15T09:18:52;101032.50;;;-2.76;61.58
73453;BME280;61687;56.232;43.854;2023-02-15T09:21:20;101025.63;;;-2.56;61.16
73453;BME280;61687;56.232;43.854;2023-02-15T09:23:48;101028.31;;;-2.56;60.99
73453;BME280;61687;56.232;43.854;2023-02-15T09:26:20;101036.16;;;-2.45;60.65
73453;BME280;61687;56.232;43.854;2023-02-15T09:28:47;101034.84;;;-2.37;60.49
73453;BME280;61687;56.232;43.854;2023-02-15T09:31:21;101048.59;;;-2.23;60.27
73453;BME280;61687;56.232;43.854;2023-02-15T09:33:48;101039.53;;;-2.06;59.78
73453;BME280;61687;56.232;43.854;2023-02-15T09:36:34;101035.25;;;-1.92;59.47
73453;BME280;61687;56.232;43.854;2023-02-15T09:47:20;101033.72;;;-1.41;58.36
73453;BME280;61687;56.232;43.854;2023-02-15T09:56:06;101030.50;;;-0.15;55.67
73453;BME280;61687;56.232;43.854;2023-02-15T10:06:48;101035.25;;;-0.57;55.66
73453;BME280;61687;56.232;43.854;2023-02-15T10:17:48;101043.69;;;-1.16;55.44
73453;BME280;61687;56.232;43.854;2023-02-15T10:26:03;101044.75;;;-1.27;56.38
73453;BME280;61687;56.232;43.854;2023-02-15T10:28:45;101037.75;;;-1.44;56.06
73453;BME280;61687;56.232;43.854;2023-02-15T10:31:28;101046.88;;;-1.45;56.82
73453;BME280;61687;56.232;43.854;2023-02-15T10:34:15;101043.38;;;-1.66;56.55
73453;BME280;61687;56.232;43.854;2023-02-15T10:39:45;101057.00;;;-1.93;57.42
73453;BME280;61687;56.232;43.854;2023-02-15T10:47:50;101050.63;;;-1.71;56.24
73453;BME280;61687;56.232;43.854;2023-02-15T10:53:24;101050.13;;;-1.27;55.50
73453;BME280;61687;56.232;43.854;2023-02-15T11:01:27;101055.47;;;-0.96;54.90
73453;BME280;61687;56.232;43.854;2023-02-15T11:04:12;101057.59;;;-0.67;54.66
73453;BME280;61687;56.232;43.854;2023-02-15T11:06:53;101062.97;;;-0.62;53.99
73453;BME280;61687;56.232;43.854;2023-02-15T11:09:24;101064.38;;;-1.01;53.67
73453;BME280;61687;56.232;43.854;2023-02-15T11:11:55;101060.88;;;-0.85;54.27
73453;BME280;61687;56.232;43.854;2023-02-15T11:14:38;101077.00;;;-0.96;54.89
73453;BME280;61687;56.232;43.854;2023-02-15T11:17:11;101064.91;;;-1.09;54.54
73453;BME280;61687;56.232;43.854;2023-02-15T11:19:46;101066.25;;;-1.01;54.86
73453;BME280;61687;56.232;43.854;2023-02-15T11:22:15;101064.38;;;-0.95;54.99
73453;BME280;61687;56.232;43.854;2023-02-15T11:24:43;101077.81;;;-0.95;54.89
73453;BME280;61687;56.232;43.854;2023-02-15T11:27:19;101067.06;;;-0.90;54.81
73453;BME280;61687;56.232;43.854;2023-02-15T11:30:11;101076.47;;;-0.88;54.30
73453;BME280;61687;56.232;43.854;2023-02-15T11:32:46;101081.84;;;-0.82;54.14
73453;BME280;61687;56.232;43.854;2023-02-15T11:37:49;101086.72;;;-0.90;53.92
73453;BME280;61687;56.232;43.854;2023-02-15T11:40:36;101085.63;;;-1.04;54.70
73453;BME280;61687;56.232;43.854;2023-02-15T11:43:47;101091.53;;;-0.87;54.69
73453;BME280;61687;56.232;43.854;2023-02-15T11:46:15;101106.34;;;-1.15;55.40
73453;BME280;61687;56.232;43.854;2023-02-15T11:48:42;101107.88;;;-1.66;57.87
73453;BME280;61687;56.232;43.854;2023-02-15T11:51:12;101110.59;;;-2.24;61.48
73453;BME280;61687;56.232;43.854;2023-02-15T11:53:39;101107.63;;;-2.33;62.08
73453;BME280;61687;56.232;43.854;2023-02-15T11:56:13;101113.59;;;-2.16;61.84
73453;BME280;61687;56.232;43.854;2023-02-15T11:58:45;101123.25;;;-2.20;60.94
73453;BME280;61687;56.232;43.854;2023-02-15T12:01:21;101119.47;;;-2.24;60.19
73453;BME280;61687;56.232;43.854;2023-02-15T12:03:54;101123.63;;;-1.95;59.29
73453;BME280;61687;56.232;43.854;2023-02-15T12:06:34;101121.41;;;-2.14;59.88
73453;BME280;61687;56.232;43.854;2023-02-15T12:09:29;101124.47;;;-1.90;59.38
73453;BME280;61687;56.232;43.854;2023-02-15T12:12:34;101139.25;;;-1.82;59.43
73453;BME280;61687;56.232;43.854;2023-02-15T12:15:03;101137.53;;;-2.04;61.43
73453;BME280;61687;56.232;43.854;2023-02-15T12:17:51;101141.81;;;-2.08;62.03
73453;BME280;61687;56.232;43.854;2023-02-15T12:23:12;101135.69;;;-2.46;62.92
73453;BME280;61687;56.232;43.854;2023-02-15T12:25:48;101145.88;;;-2.53;63.09
73453;BME280;61687;56.232;43.854;2023-02-15T12:28:34;101148.78;;;-2.55;62.82
73453;BME280;61687;56.232;43.854;2023-02-15T12:31:04;101153.19;;;-2.43;62.58
73453;BME280;61687;56.232;43.854;2023-02-15T12:33:41;101148.00;;;-2.55;62.84
73453;BME280;61687;56.232;43.854;2023-02-15T12:39:19;101152.97;;;-2.37;62.21
73453;BME280;61687;56.232;43.854;2023-02-15T12:44:34;101155.06;;;-2.77;63.50
73453;BME280;61687;56.232;43.854;2023-02-15T12:47:10;101158.94;;;-2.62;62.84
73453;BME280;61687;56.232;43.854;2023-02-15T12:49:44;101162.50;;;-2.51;62.50
73453;BME280;61687;56.232;43.854;2023-02-15T12:52:29;101166.97;;;-2.24;61.98
73453;BME280;61687;56.232;43.854;2023-02-15T12:54:55;101166.91;;;-2.40;61.54
73453;BME280;61687;56.232;43.854;2023-02-15T12:57:34;101173.09;;;-2.34;62.27
73453;BME280;61687;56.232;43.854;2023-02-15T13:00:10;101178.22;;;-2.33;61.90
73453;BME280;61687;56.232;43.854;2023-02-15T13:02:51;101180.00;;;-2.43;62.04
73453;BME280;61687;56.232;43.854;2023-02-15T13:05:23;101175.41;;;-2.48;61.85
73453;BME280;61687;56.232;43.854;2023-02-15T13:07:55;101182.47;;;-2.75;61.99
73453;BME280;61687;56.232;43.854;2023-02-15T13:10:25;101184.13;;;-2.68;61.96
73453;BME280;61687;56.232;43.854;2023-02-15T13:12:52;101190.03;;;-2.99;62.44
73453;BME280;61687;56.232;43.854;2023-02-15T13:15:56;101195.34;;;-3.04;62.52
73453;BME280;61687;56.232;43.854;2023-02-15T13:18:32;101201.31;;;-2.97;62.39
73453;BME280;61687;56.232;43.854;2023-02-15T13:21:14;101192.38;;;-3.08;62.38
73453;BME280;61687;56.232;43.854;2023-02-15T13:23:48;101200.59;;;-3.14;62.26
73453;BME280;61687;56.232;43.854;2023-02-15T13:26:19;101205.69;;;-3.18;62.78
73453;BME280;61687;56.232;43.854;2023-02-15T13:28:49;101200.56;;;-3.20;62.81
73453;BME280;61687;56.232;43.854;2023-02-15T13:31:22;101213.75;;;-3.40;62.84
73453;BME280;61687;56.232;43.854;2023-02-15T13:34:00;101213.75;;;-3.40;62.75
73453;BME280;61687;56.232;43.854;2023-02-15T13:36:29;101222.78;;;-3.47;62.68
73453;BME280;61687;56.232;43.854;2023-02-15T13:39:20;101215.97;;;-3.77;63.33
73453;BME280;61687;56.232;43.854;2023-02-15T13:50:28;101226.97;;;-3.95;63.34
73453;BME280;61687;56.232;43.854;2023-02-15T13:52:46;101234.03;;;-4.06;63.56
73453;BME280;61687;56.232;43.854;2023-02-15T13:55:57;101228.84;;;-3.96;63.46
73453;BME280;61687;56.232;43.854;2023-02-15T14:01:15;101241.28;;;-4.07;63.75
73453;BME280;61687;56.232;43.854;2023-02-15T14:04:01;101241.78;;;-4.10;63.61
73453;BME280;61687;56.232;43.854;2023-02-15T14:09:43;101253.13;;;-4.20;63.84
73453;BME280;61687;56.232;43.854;2023-02-15T14:12:26;101244.28;;;-4.37;64.13
73453;BME280;61687;56.232;43.854;2023-02-15T14:23:24;101257.44;;;-4.19;64.08
73453;BME280;61687;56.232;43.854;2023-02-15T14:25:57;101253.94;;;-4.02;63.74
73453;BME280;61687;56.232;43.854;2023-02-15T14:31:18;101268.34;;;-3.86;63.50
73453;BME280;61687;56.232;43.854;2023-02-15T14:33:55;101270.53;;;-3.83;63.45
73453;BME280;61687;56.232;43.854;2023-02-15T14:36:22;101262.56;;;-3.78;63.30
73453;BME280;61687;56.232;43.854;2023-02-15T14:39:02;101272.78;;;-3.75;63.63
73453;BME280;61687;56.232;43.854;2023-02-15T14:41:46;101282.13;;;-3.77;63.54
73453;BME280;61687;56.232;43.854;2023-02-15T14:44:30;101284.47;;;-3.81;63.52
73453;BME280;61687;56.232;43.854;2023-02-15T14:47:27;101290.16;;;-3.77;63.97
73453;BME280;61687;56.232;43.854;2023-02-15T14:49:55;101300.22;;;-3.67;63.67
73453;BME280;61687;56.232;43.854;2023-02-15T14:52:21;101287.72;;;-3.79;63.89
73453;BME280;61687;56.232;43.854;2023-02-15T15:00:28;101295.34;;;-3.70;63.59
73453;BME280;61687;56.232;43.854;2023-02-15T15:02:52;101299.50;;;-3.80;63.14
73453;BME280;61687;56.232;43.854;2023-02-15T15:07:58;101302.91;;;-3.84;63.68
73453;BME280;61687;56.232;43.854;2023-02-15T15:10:34;101298.94;;;-3.82;63.52
73453;BME280;61687;56.232;43.854;2023-02-15T15:16:27;101309.56;;;-3.87;63.05